Aeroporto :
LOGIN :

Iscrizione | Disclaimer

   EN    FR    IT 

 










Sommario :    VFR   VFR Marginale   IFR   IFR Intensivo   IFR Molto Intensivo
Visibilità : 
Base nubi : 
>= 8 km
>= 3000ft
5 / 8 km
1000 / 3000 ft
1500m / 5 km
500 / 1000 ft
800 / 1500m
200 / 500 ft
< 800m
< 200 ft
Simboli :   Temporali  Nebbia  Neve Forte  Precipitazioni Forti  Vento > 20 kt
SIGMETs :   Varie  Temporali  Ghiacco  Turbolenza  Onda orograficha  Ceneri Vulcaniche






- Altitudine del aeroporto : 1411 ft
- Codice IATA : SZG


LOWS - Salzburg

ULTIMO METAR :
  • 162320Z AUTO 15003KT 9999 BKN070 14/13 Q1014

METARs OBSOLETI :
  • 162250Z AUTO 17003KT 130V200 9999 NCD 15/13 Q1014
  • 162220Z AUTO 17003KT 9999 FEW090 15/13 Q1014
  • 162150Z AUTO 15003KT 110V170 9999 FEW100 15/13 Q1014
  • 162120Z AUTO 16006KT 9999 NSC 15/13 Q1014
  • 162050Z 17005KT 9999 FEW080 16/13 Q1013 NOSIG
  • 162020Z 15005KT 9999 FEW080 17/13 Q1013 NOSIG
  • 161950Z 18004KT 9999 FEW070 17/14 Q1013 NOSIG
  • 161920Z VRB01KT 9999 FEW060 19/14 Q1012 NOSIG
  • 161850Z 04002KT 9999 FEW060 21/13 Q1012 NOSIG

TAF TAF LOWS
Valido dal 17 a 00 ore il 18 a 00 ore UTC


162315Z 1700/1724 15006KT 9999 FEW070 TX24/1713Z TN14/1703Z
BECMG 1708/1710 34006KT
TEMPO 1714/1719 -SHRA FEW050CB SCT070
PROB30 1716/1719 32015KT TSRA
BECMG 1719/1721 16006KT



MetMap, La meteo Aeronautica in un colpo d'occhio ! - Copyright ORBIFLY Dicembre 2007 - Disclaimer

ORBIFLY MET'MAP TEAM :

Programmazione e sviluppo : Alexandra Zaïnal
Concezione : Baudouin d'Aumeries
Supporto tecnico e logistico : Manuel Goepfert
Aiuto : Marc-Olivier Méhu
Aiuto per la traduzione : Arnaldo La Scala




FONTI E CREDITI :

   NOAA